Map

Track Data

SID SEASON NUMBER BASIN SUBBASIN NAME ISO_TIME NATURE LAT LON WMO_WIND WMO_PRES WMO_AGENCY TRACK_TYPE DIST2LAND LANDFALL IFLAG USA_AGENCY USA_ATCF_ID USA_LAT USA_LON USA_RECORD USA_STATUS USA_WIND USA_PRES USA_SSHS USA_R34_NE USA_R34_SE USA_R34_SW USA_R34_NW USA_R50_NE USA_R50_SE USA_R50_SW USA_R50_NW USA_R64_NE USA_R64_SE USA_R64_SW USA_R64_NW USA_POCI USA_ROCI USA_RMW USA_EYE TOKYO_LAT TOKYO_LON TOKYO_GRADE TOKYO_WIND TOKYO_PRES TOKYO_R50_DIR TOKYO_R50_LONG TOKYO_R50_SHORT TOKYO_R30_DIR TOKYO_R30_LONG TOKYO_R30_SHORT TOKYO_LAND CMA_LAT CMA_LON CMA_CAT CMA_WIND CMA_PRES HKO_LAT HKO_LON HKO_CAT HKO_WIND HKO_PRES NEWDELHI_LAT NEWDELHI_LON NEWDELHI_GRADE NEWDELHI_WIND NEWDELHI_PRES NEWDELHI_CI NEWDELHI_DP NEWDELHI_POCI REUNION_LAT REUNION_LON REUNION_TYPE REUNION_WIND REUNION_PRES REUNION_TNUM REUNION_CI REUNION_RMW REUNION_R34_NE REUNION_R34_SE REUNION_R34_SW REUNION_R34_NW REUNION_R50_NE REUNION_R50_SE REUNION_R50_SW REUNION_R50_NW REUNION_R64_NE REUNION_R64_SE REUNION_R64_SW REUNION_R64_NW BOM_LAT BOM_LON BOM_TYPE BOM_WIND BOM_PRES BOM_TNUM BOM_CI BOM_RMW BOM_R34_NE BOM_R34_SE BOM_R34_SW BOM_R34_NW BOM_R50_NE BOM_R50_SE BOM_R50_SW BOM_R50_NW BOM_R64_NE BOM_R64_SE BOM_R64_SW BOM_R64_NW BOM_ROCI BOM_POCI BOM_EYE BOM_POS_METHOD BOM_PRES_METHOD NADI_LAT NADI_LON NADI_CAT NADI_WIND NADI_PRES WELLINGTON_LAT WELLINGTON_LON WELLINGTON_WIND WELLINGTON_PRES DS824_LAT DS824_LON DS824_STAGE DS824_WIND DS824_PRES TD9636_LAT TD9636_LON TD9636_STAGE TD9636_WIND TD9636_PRES TD9635_LAT TD9635_LON TD9635_WIND TD9635_PRES TD9635_ROCI NEUMANN_LAT NEUMANN_LON NEUMANN_CLASS NEUMANN_WIND NEUMANN_PRES MLC_LAT MLC_LON MLC_CLASS MLC_WIND MLC_PRES USA_GUST BOM_GUST BOM_GUST_PER REUNION_GUST REUNION_GUST_PER USA_SEAHGT USA_SEARAD_NE USA_SEARAD_SE USA_SEARAD_SW USA_SEARAD_NW STORM_SPEED STORM_DIR
1969281N20292 1969 99 NA NA KARA 1969-10-07 12:00:00 TS 19.8000 -68.2000 30 1005 hurdat_atl main 118 99 O_____________ hurdat_atl AL251969 19.8000 -68.2000 TD 30 1005 -1 8 291
1969281N20292 1969 99 NA NA KARA 1969-10-07 15:00:00 TS 19.9401 -68.5824 main 99 88 P_____________ AL251969 19.9401 -68.5824 TD 30 -1 8 292
1969281N20292 1969 99 NA NA KARA 1969-10-07 18:00:00 TS 20.1000 -69.0000 30 hurdat_atl main 94 91 O_____________ hurdat_atl AL251969 20.1000 -69.0000 TD 30 -1 9 293
1969281N20292 1969 99 NA NA KARA 1969-10-07 21:00:00 TS 20.2924 -69.4775 main 94 88 P_____________ AL251969 20.2924 -69.4775 TD 30 -1 10 293
1969281N20292 1969 99 NA NA KARA 1969-10-08 00:00:00 TS 20.5000 -70.0000 30 hurdat_atl main 98 91 O_____________ hurdat_atl AL251969 20.5000 -70.0000 TD 30 -1 11 292
1969281N20292 1969 99 NA NA KARA 1969-10-08 03:00:00 TS 20.6848 -70.5353 main 101 100 P_____________ AL251969 20.6848 -70.5353 TD 30 -1 11 291
1969281N20292 1969 99 NA NA KARA 1969-10-08 06:00:00 TS 20.9000 -71.1000 30 hurdat_atl main 123 123 O_____________ hurdat_atl AL251969 20.9000 -71.1000 TD 30 -1 12 293
1969281N20292 1969 99 NA NA KARA 1969-10-08 09:00:00 TS 21.1626 -71.7151 main 134 79 P_____________ AL251969 21.1626 -71.7151 TD 30 -1 13 298
1969281N20292 1969 99 NA NA KARA 1969-10-08 12:00:00 TS 21.5000 -72.3000 30 hurdat_atl main 79 68 O_____________ hurdat_atl AL251969 21.5000 -72.3000 TD 30 -1 13 306
1969281N20292 1969 99 NA NA KARA 1969-10-08 15:00:00 TS 21.9124 -72.8099 main 80 80 P_____________ AL251969 21.9124 -72.8099 TD 30 -1 12 317
1969281N20292 1969 99 NA NA KARA 1969-10-08 18:00:00 TS 22.4000 -73.2000 30 hurdat_atl main 134 134 O_____________ hurdat_atl AL251969 22.4000 -73.2000 TD 30 -1 12 329
1969281N20292 1969 99 NA NA KARA 1969-10-08 21:00:00 TS 22.9273 -73.4602 main 192 192 P_____________ AL251969 22.9273 -73.4602 TD 30 -1 12 341
1969281N20292 1969 99 NA NA KARA 1969-10-09 00:00:00 TS 23.5000 -73.6000 30 hurdat_atl main 260 260 O_____________ hurdat_atl AL251969 23.5000 -73.6000 TD 30 -1 12 350
1969281N20292 1969 99 NA NA KARA 1969-10-09 03:00:00 TS 24.1000 -73.6876 main 328 328 P_____________ AL251969 24.1000 -73.6876 TD 30 -1 12 356
1969281N20292 1969 99 NA NA KARA 1969-10-09 06:00:00 TS 24.7000 -73.7000 30 hurdat_atl main 394 394 O_____________ hurdat_atl AL251969 24.7000 -73.7000 TD 30 -1 12 0
1969281N20292 1969 99 NA NA KARA 1969-10-09 09:00:00 TS 25.2650 -73.6800 main 412 412 P_____________ AL251969 25.2650 -73.6800 TD 32 -1 11 5
1969281N20292 1969 99 NA NA KARA 1969-10-09 12:00:00 TS 25.8000 -73.6000 35 1006 hurdat_atl main 437 437 O_____________ hurdat_atl AL251969 25.8000 -73.6000 TS 35 1006 0 11 10
1969281N20292 1969 99 NA NA KARA 1969-10-09 15:00:00 TS 26.3075 -73.4798 main 466 466 P_____________ AL251969 26.3075 -73.4798 TS 37 1004 0 10 15
1969281N20292 1969 99 NA NA KARA 1969-10-09 18:00:00 TS 26.8000 -73.3000 40 1002 hurdat_atl main 506 506 O_____________ hurdat_atl AL251969 26.8000 -73.3000 TS 40 1002 0 11 20
1969281N20292 1969 99 NA NA KARA 1969-10-09 21:00:00 TS 27.3301 -73.0578 main 546 546 P_____________ AL251969 27.3301 -73.0578 TS 40 0 11 24
1969281N20292 1969 99 NA NA KARA 1969-10-10 00:00:00 TS 27.8000 -72.8000 40 hurdat_atl main 598 598 O_____________ hurdat_atl AL251969 27.8000 -72.8000 TS 40 0 9 27
1969281N20292 1969 99 NA NA KARA 1969-10-10 03:00:00 TS 28.1374 -72.5922 main 632 632 P_____________ AL251969 28.1374 -72.5922 TS 40 0 7 30
1969281N20292 1969 99 NA NA KARA 1969-10-10 06:00:00 TS 28.4000 -72.4000 40 hurdat_atl main 666 666 O_____________ hurdat_atl AL251969 28.4000 -72.4000 TS 40 0 6 33
1969281N20292 1969 99 NA NA KARA 1969-10-10 09:00:00 TS 28.6574 -72.2148 main 701 701 P_____________ AL251969 28.6574 -72.2148 TS 40 0 6 35
1969281N20292 1969 99 NA NA KARA 1969-10-10 12:00:00 TS 28.9000 -72.0000 40 1001 hurdat_atl main 729 729 O_____________ hurdat_atl AL251969 28.9000 -72.0000 TS 40 1001 0 6 41
1969281N20292 1969 99 NA NA KARA 1969-10-10 15:00:00 TS 29.1424 -71.7298 main 766 755 P_____________ AL251969 29.1424 -71.7298 TS 40 1000 0 7 46
1969281N20292 1969 99 NA NA KARA 1969-10-10 18:00:00 TS 29.4000 -71.4000 40 1000 hurdat_atl main 761 753 O_____________ hurdat_atl AL251969 29.4000 -71.4000 TS 40 1000 0 8 49
1969281N20292 1969 99 NA NA KARA 1969-10-10 21:00:00 TS 29.6851 -71.0074 main 759 756 P_____________ AL251969 29.6851 -71.0074 TS 40 999 0 9 49
1969281N20292 1969 99 NA NA KARA 1969-10-11 00:00:00 TS 30.0000 -70.6000 40 999 hurdat_atl main 761 760 O_____________ hurdat_atl AL251969 30.0000 -70.6000 TS 40 999 0 9 49
1969281N20292 1969 99 NA NA KARA 1969-10-11 03:00:00 TS 30.2901 -70.1975 main 766 758 P_____________ AL251969 30.2901 -70.1975 TS 40 999 0 9 41
1969281N20292 1969 99 NA NA KARA 1969-10-11 06:00:00 TS 30.7000 -69.9000 40 999 hurdat_atl main 758 725 O_____________ hurdat_atl AL251969 30.7000 -69.9000 TS 40 999 0 11 20
1969281N20292 1969 99 NA NA KARA 1969-10-11 09:00:00 TS 31.3098 -69.7679 main 725 674 P_____________ AL251969 31.3098 -69.7679 TS 40 998 0 14 4
1969281N20292 1969 99 NA NA KARA 1969-10-11 12:00:00 TS 32.1000 -69.8000 40 998 hurdat_atl main 667 594 O_____________ hurdat_atl AL251969 32.1000 -69.8000 TS 40 998 0 18 355
1969281N20292 1969 99 NA NA KARA 1969-10-11 15:00:00 TS 33.1176 -69.9609 main 586 522 P_____________ AL251969 33.1176 -69.9609 TS 40 999 0 19 350
1969281N20292 1969 99 NA NA KARA 1969-10-11 18:00:00 TS 34.0000 -70.2000 40 1001 hurdat_atl main 522 488 O_____________ hurdat_atl AL251969 34.0000 -70.2000 TS 40 1001 0 13 343
1969281N20292 1969 99 NA NA KARA 1969-10-11 21:00:00 TS 34.3700 -70.4231 main 488 467 P_____________ AL251969 34.3700 -70.4231 TS 42 999 0 6 326
1969281N20292 1969 99 NA NA KARA 1969-10-12 00:00:00 SS 34.5000 -70.6000 45 998 hurdat_atl main 467 451 O_____________ hurdat_atl AL251969 34.5000 -70.6000 SS 45 998 -2 4 328
1969281N20292 1969 99 NA NA KARA 1969-10-12 03:00:00 SS 34.6874 -70.6652 main 451 448 P_____________ AL251969 34.6874 -70.6652 SS 45 997 -2 3 346
1969281N20292 1969 99 NA NA KARA 1969-10-12 06:00:00 SS 34.8000 -70.7000 45 997 hurdat_atl main 448 436 O_____________ hurdat_atl AL251969 34.8000 -70.7000 SS 45 997 -2 2 333
1969281N20292 1969 99 NA NA KARA 1969-10-12 09:00:00 SS 34.8600 -70.7773 main 436 431 P_____________ AL251969 34.8600 -70.7773 SS 45 997 -2 2 270
1969281N20292 1969 99 NA NA KARA 1969-10-12 12:00:00 SS 34.8000 -70.9000 45 997 hurdat_atl main 431 420 O_____________ hurdat_atl AL251969 34.8000 -70.9000 SS 45 997 -2 4 225
1969281N20292 1969 99 NA NA KARA 1969-10-12 15:00:00 SS 34.5876 -71.1079 main 420 411 P_____________ AL251969 34.5876 -71.1079 SS 45 998 -2 6 213
1969281N20292 1969 99 NA NA KARA 1969-10-12 18:00:00 SS 34.3000 -71.3000 45 999 hurdat_atl main 416 416 O_____________ hurdat_atl AL251969 34.3000 -71.3000 SS 45 999 -2 6 202
1969281N20292 1969 99 NA NA KARA 1969-10-12 21:00:00 SS 34.0574 -71.3647 main 418 418 P_____________ AL251969 34.0574 -71.3647 SS 45 998 -2 5 189
1969281N20292 1969 99 NA NA KARA 1969-10-13 00:00:00 SS 33.8000 -71.4000 45 997 hurdat_atl main 434 434 O_____________ hurdat_atl AL251969 33.8000 -71.4000 SS 45 997 -2 6 186
1969281N20292 1969 99 NA NA KARA 1969-10-13 03:00:00 SS 33.4996 -71.4244 main 453 452 P_____________ AL251969 33.4996 -71.4244 SS 45 997 -2 6 196
1969281N20292 1969 99 NA NA KARA 1969-10-13 06:00:00 SS 33.2000 -71.6000 45 998 hurdat_atl main 459 445 O_____________ hurdat_atl AL251969 33.2000 -71.6000 SS 45 998 -2 8 226
1969281N20292 1969 99 NA NA KARA 1969-10-13 09:00:00 SS 32.9654 -72.0823 main 439 412 P_____________ AL251969 32.9654 -72.0823 SS 45 996 -2 10 242
1969281N20292 1969 99 NA NA KARA 1969-10-13 12:00:00 SS 32.7000 -72.7000 45 995 hurdat_atl main 412 398 O_____________ hurdat_atl AL251969 32.7000 -72.7000 SS 45 995 -2 12 237
1969281N20292 1969 99 NA NA KARA 1969-10-13 15:00:00 SS 32.3151 -73.2804 main 399 393 P_____________ AL251969 32.3151 -73.2804 SS 45 995 -2 12 229
1969281N20292 1969 99 NA NA KARA 1969-10-13 18:00:00 SS 31.9000 -73.8000 45 hurdat_atl main 400 394 I_____________ hurdat_atl AL251969 31.9000 -73.8000 SS 45 996 -2 11 223
1969281N20292 1969 99 NA NA KARA 1969-10-13 21:00:00 SS 31.4747 -74.1950 main 415 415 P_____________ AL251969 31.4747 -74.1950 SS 45 997 -2 9 220
1969281N20292 1969 99 NA NA KARA 1969-10-14 00:00:00 SS 31.2000 -74.5000 45 998 hurdat_atl main 432 421 O_____________ hurdat_atl AL251969 31.2000 -74.5000 SS 45 998 -2 6 242
1969281N20292 1969 99 NA NA KARA 1969-10-14 03:00:00 SS 31.2174 -74.7645 main 421 393 P_____________ AL251969 31.2174 -74.7645 SS 45 997 -2 5 295
1969281N20292 1969 99 NA NA KARA 1969-10-14 06:00:00 SS 31.4000 -75.0000 45 996 hurdat_atl main 393 366 O_____________ hurdat_atl AL251969 31.4000 -75.0000 SS 45 996 -2 6 315
1969281N20292 1969 99 NA NA KARA 1969-10-14 09:00:00 SS 31.6300 -75.2496 main 366 330 P_____________ AL251969 31.6300 -75.2496 SS 50 993 -2 6 313
1969281N20292 1969 99 NA NA KARA 1969-10-14 12:00:00 TS 31.8000 -75.5000 55 990 hurdat_atl main 330 311 O_____________ hurdat_atl AL251969 31.8000 -75.5000 TS 55 990 0 5 281
1969281N20292 1969 99 NA NA KARA 1969-10-14 15:00:00 TS 31.7300 -75.8406 main 319 308 P_____________ AL251969 31.7300 -75.8406 TS 55 990 0 5 245
1969281N20292 1969 99 NA NA KARA 1969-10-14 18:00:00 TS 31.6000 -76.0000 55 990 hurdat_atl main 317 317 O_____________ hurdat_atl AL251969 31.6000 -76.0000 TS 55 990 0 2 154
1969281N20292 1969 99 NA NA KARA 1969-10-14 21:00:00 TS 31.5551 -75.7471 main 334 334 P_____________ AL251969 31.5551 -75.7471 TS 57 989 0 6 90
1969281N20292 1969 99 NA NA KARA 1969-10-15 00:00:00 TS 31.6000 -75.3000 60 988 hurdat_atl main 359 358 O_____________ hurdat_atl AL251969 31.6000 -75.3000 TS 60 988 0 7 75
1969281N20292 1969 99 NA NA KARA 1969-10-15 03:00:00 TS 31.7473 -74.9223 main 366 353 P_____________ AL251969 31.7473 -74.9223 TS 62 986 0 8 60
1969281N20292 1969 99 NA NA KARA 1969-10-15 06:00:00 TS 32.0000 -74.5000 65 985 hurdat_atl main 353 345 O_____________ hurdat_atl AL251969 32.0000 -74.5000 HU 65 985 1 10 52
1969281N20292 1969 99 NA NA KARA 1969-10-15 09:00:00 TS 32.3499 -74.0229 main 353 343 P_____________ AL251969 32.3499 -74.0229 HU 65 984 1 11 50
1969281N20292 1969 99 NA NA KARA 1969-10-15 12:00:00 TS 32.7000 -73.5000 65 984 hurdat_atl main 355 355 O_____________ hurdat_atl AL251969 32.7000 -73.5000 HU 65 984 1 11 57
1969281N20292 1969 99 NA NA KARA 1969-10-15 15:00:00 TS 32.9222 -72.9644 main 376 376 P_____________ AL251969 32.9222 -72.9644 HU 62 987 0 10 67
1969281N20292 1969 99 NA NA KARA 1969-10-15 18:00:00 TS 33.1000 -72.4000 60 990 hurdat_atl main 411 411 O_____________ hurdat_atl AL251969 33.1000 -72.4000 TS 60 990 0 10 70
1969281N20292 1969 99 NA NA KARA 1969-10-15 21:00:00 TS 33.2848 -71.8070 main 438 438 P_____________ AL251969 33.2848 -71.8070 TS 60 991 0 11 68
1969281N20292 1969 99 NA NA KARA 1969-10-16 00:00:00 TS 33.5000 -71.2000 60 992 hurdat_atl main 468 468 O_____________ hurdat_atl AL251969 33.5000 -71.2000 TS 60 992 0 11 64
1969281N20292 1969 99 NA NA KARA 1969-10-16 03:00:00 TS 33.7771 -70.6071 main 498 498 P_____________ AL251969 33.7771 -70.6071 TS 60 992 0 12 59
1969281N20292 1969 99 NA NA KARA 1969-10-16 06:00:00 TS 34.1000 -70.0000 60 992 hurdat_atl main 534 534 O_____________ hurdat_atl AL251969 34.1000 -70.0000 TS 60 992 0 12 58
1969281N20292 1969 99 NA NA KARA 1969-10-16 09:00:00 TS 34.4270 -69.3716 main 575 575 P_____________ AL251969 34.4270 -69.3716 TS 60 993 0 13 57
1969281N20292 1969 99 NA NA KARA 1969-10-16 12:00:00 TS 34.8000 -68.7000 60 994 hurdat_atl main 625 625 O_____________ hurdat_atl AL251969 34.8000 -68.7000 TS 60 994 0 14 55
1969281N20292 1969 99 NA NA KARA 1969-10-16 15:00:00 TS 35.2112 -68.0154 main 680 680 P_____________ AL251969 35.2112 -68.0154 TS 62 992 0 15 54
1969281N20292 1969 99 NA NA KARA 1969-10-16 18:00:00 TS 35.7000 -67.2000 65 990 hurdat_atl main 710 690 O_____________ hurdat_atl AL251969 35.7000 -67.2000 HU 65 990 1 18 55
1969281N20292 1969 99 NA NA KARA 1969-10-16 21:00:00 TS 36.2626 -66.1592 main 684 678 P_____________ AL251969 36.2626 -66.1592 HU 65 990 1 21 56
1969281N20292 1969 99 NA NA KARA 1969-10-17 00:00:00 TS 36.9000 -65.0000 65 990 hurdat_atl main 684 666 O_____________ hurdat_atl AL251969 36.9000 -65.0000 HU 65 990 1 23 54
1969281N20292 1969 99 NA NA KARA 1969-10-17 03:00:00 TS 37.5907 -63.8857 main 666 615 P_____________ AL251969 37.5907 -63.8857 HU 67 988 1 23 52
1969281N20292 1969 99 NA NA KARA 1969-10-17 06:00:00 TS 38.3000 -62.7000 70 986 hurdat_atl main 618 597 O_____________ hurdat_atl AL251969 38.3000 -62.7000 HU 70 986 1 23 55
1969281N20292 1969 99 NA NA KARA 1969-10-17 09:00:00 TS 38.9391 -61.4495 main 606 596 P_____________ AL251969 38.9391 -61.4495 HU 72 985 1 25 58
1969281N20292 1969 99 NA NA KARA 1969-10-17 12:00:00 TS 39.6000 -60.0000 75 985 hurdat_atl main 610 592 O_____________ hurdat_atl AL251969 39.6000 -60.0000 HU 75 985 1 27 61
1969281N20292 1969 99 NA NA KARA 1969-10-17 15:00:00 TS 40.2758 -58.3474 main 590 583 P_____________ AL251969 40.2758 -58.3474 HU 77 981 1 32 62
1969281N20292 1969 99 NA NA KARA 1969-10-17 18:00:00 TS 41.1000 -56.3000 80 978 hurdat_atl main 598 500 O_____________ hurdat_atl AL251969 41.1000 -56.3000 HU 80 978 1 40 62
1969281N20292 1969 99 NA NA KARA 1969-10-17 21:00:00 TS 42.1726 -53.6894 main 489 412 P_____________ AL251969 42.1726 -53.6894 HU 80 978 1 46 62
1969281N20292 1969 99 NA NA KARA 1969-10-18 00:00:00 ET 43.3000 -50.8000 80 hurdat_atl main 412 409 I_____________ hurdat_atl AL251969 43.3000 -50.8000 EX 80 979 -4 46 62
1969281N20292 1969 99 NA NA KARA 1969-10-18 03:00:00 ET 44.3414 -48.0349 main 476 476 P_____________ AL251969 44.3414 -48.0349 EX 77 979 -4 44 64
1969281N20292 1969 99 NA NA KARA 1969-10-18 06:00:00 ET 45.2000 -45.3000 75 980 hurdat_atl main 613 613 O_____________ hurdat_atl AL251969 45.2000 -45.3000 EX 75 980 -4 41 69
1969281N20292 1969 99 NA NA KARA 1969-10-18 09:00:00 ET 45.7791 -42.5992 main 782 782 P_____________ AL251969 45.7791 -42.5992 EX 70 -4 38 76
1969281N20292 1969 99 NA NA KARA 1969-10-18 12:00:00 ET 46.1000 -40.0000 65 hurdat_atl main 966 966 O_____________ hurdat_atl AL251969 46.1000 -40.0000 EX 65 -4 35 83
1969281N20292 1969 99 NA NA KARA 1969-10-18 15:00:00 ET 46.2254 -37.5069 main 1150 1150 P_____________ AL251969 46.2254 -37.5069 EX 62 -4 34 88
1969281N20292 1969 99 NA NA KARA 1969-10-18 18:00:00 ET 46.2000 -35.1000 60 hurdat_atl main 1330 1330 O_____________ hurdat_atl AL251969 46.2000 -35.1000 EX 60 -4 35 92
1969281N20292 1969 99 NA NA KARA 1969-10-18 21:00:00 ET 46.1265 -32.5029 main 1527 1527 P_____________ AL251969 46.1265 -32.5029 EX 57 -4 33 93
1969281N20292 1969 99 NA NA KARA 1969-10-19 00:00:00 ET 46.0000 -30.3000 55 hurdat_atl main 1577 1498 O_____________ hurdat_atl AL251969 46.0000 -30.3000 EX 55 -4 25 95
1969281N20292 1969 99 NA NA KARA 1969-10-19 03:00:00 ET 45.8885 -28.9040 main 1492 1440 P_____________ AL251969 45.8885 -28.9040 EX 50 -4 16 97
1969281N20292 1969 99 NA NA KARA 1969-10-19 06:00:00 ET 45.8000 -28.0000 45 hurdat_atl main 1440 O_____________ hurdat_atl AL251969 45.8000 -28.0000 EX 45 -4 13 98

About IBTrACS Database

This database is a web-friendly format of International Best Track Archive for Climate Stewardship (IBTrACS), a global best track data archive curated by NOAA dating back to 1842.

Updated: 2022-11-16